createdAt,value
2019-05-30T16:48:32.456Z,1.85
2019-05-30T16:51:54.505Z,2.10
2019-05-30T16:54:24.242Z,1.67
2019-05-30T16:56:53.769Z,2.00
2019-05-30T16:59:23.293Z,1.95
2019-05-30T17:01:58.051Z,1.95
2019-05-30T17:04:24.721Z,1.82
2019-05-30T17:06:54.248Z,2.00
2019-05-30T17:09:23.764Z,2.02
2019-05-30T17:11:53.378Z,1.70
2019-05-30T17:14:23.924Z,2.17
2019-05-30T17:16:53.996Z,1.82
2019-05-30T17:19:24.530Z,2.20
2019-05-30T17:21:55.987Z,1.77
2019-05-30T17:24:27.136Z,2.15
2019-05-30T17:26:57.366Z,2.08
2019-05-30T17:29:27.724Z,2.20
2019-05-30T17:31:57.717Z,1.92
2019-05-30T17:34:28.197Z,2.10
2019-05-30T17:39:27.342Z,2.22
2019-05-30T17:41:57.332Z,2.35
2019-05-30T17:44:27.313Z,2.40
2019-05-30T17:46:57.086Z,2.12
2019-05-30T17:49:27.868Z,3.03
2019-05-30T17:54:19.809Z,3.40
2019-05-30T17:56:52.444Z,3.12
2019-05-30T17:59:22.343Z,3.00
2019-05-30T18:01:52.044Z,2.85
2019-05-30T18:04:22.480Z,2.05
2019-05-30T18:06:52.280Z,2.37
2019-05-30T18:09:23.062Z,2.00
2019-05-30T18:11:52.920Z,2.00
2019-05-30T18:14:23.032Z,2.33
2019-05-30T18:16:52.744Z,2.42
2019-05-30T18:19:23.283Z,2.35
2019-05-30T18:24:23.149Z,2.45
2019-05-30T18:26:53.246Z,2.42
2019-05-30T18:29:23.820Z,2.12
2019-05-30T18:31:53.883Z,2.60
2019-05-30T18:34:24.117Z,2.25
2019-05-30T18:36:55.229Z,3.08
2019-05-30T18:39:24.877Z,2.72
2019-05-30T18:41:54.772Z,2.40
2019-05-30T18:44:28.816Z,2.40
2019-05-30T18:46:56.676Z,2.55
2019-05-30T18:49:27.127Z,2.40
2019-05-30T18:51:57.031Z,2.20
2019-05-30T18:54:26.791Z,2.73
2019-05-30T18:56:57.557Z,2.37
2019-05-30T19:01:56.533Z,2.15
2019-05-30T19:04:27.347Z,2.80
2019-05-30T19:06:57.290Z,3.10
2019-05-30T19:09:27.135Z,2.50
2019-05-30T19:11:57.132Z,2.17
2019-05-30T19:14:29.744Z,2.30
2019-05-30T19:16:58.592Z,2.60
2019-05-30T19:19:29.627Z,2.22
2019-05-30T19:22:00.476Z,2.20
2019-05-30T19:26:59.895Z,2.50
2019-05-30T19:29:31.060Z,2.37
2019-05-30T19:32:00.931Z,2.25
2019-05-30T19:34:30.873Z,2.80
2019-05-30T19:37:00.768Z,3.20
2019-05-30T19:39:31.444Z,3.40
2019-05-30T19:44:30.104Z,3.80
2019-05-30T19:47:00.084Z,2.25
2019-05-30T19:49:30.351Z,2.27
2019-05-30T19:52:00.262Z,2.47
2019-05-30T19:54:30.839Z,2.42
2019-05-30T19:57:00.505Z,2.27
2019-05-30T19:59:31.600Z,2.33
2019-05-30T20:02:01.552Z,2.20
2019-05-30T20:04:32.187Z,2.22
2019-05-30T20:09:32.509Z,2.33
2019-05-30T20:12:04.962Z,2.22
2019-05-30T20:14:35.014Z,2.17
2019-05-30T20:17:05.157Z,2.42
2019-05-30T20:19:35.587Z,2.40
2019-05-30T20:22:05.391Z,2.02
2019-05-30T20:24:36.136Z,2.52
2019-05-30T20:29:37.217Z,2.45
2019-05-30T20:32:07.083Z,2.40
2019-05-30T20:34:36.800Z,2.30
2019-05-30T20:37:06.510Z,2.58
2019-05-30T20:39:36.585Z,2.80
2019-05-30T20:42:18.741Z,2.90
2019-05-30T20:44:38.867Z,2.75
2019-05-30T20:47:08.672Z,2.47
2019-05-30T20:49:39.143Z,2.25
2019-05-30T20:52:08.864Z,2.65
2019-05-30T20:54:39.262Z,2.12
2019-05-30T20:57:09.137Z,2.45
2019-05-30T20:59:38.996Z,2.40
2019-05-30T21:02:08.536Z,2.58
2019-05-30T21:04:38.814Z,2.62
2019-05-30T21:07:10.366Z,2.60
2019-05-30T21:09:40.423Z,2.37
2019-05-30T21:12:11.692Z,2.72
2019-05-30T21:14:43.548Z,2.52
2019-05-30T21:17:16.227Z,2.90
2019-05-30T21:19:46.279Z,2.87
2019-05-30T21:22:16.130Z,2.80
2019-05-30T21:24:47.028Z,3.47
2019-05-30T21:27:16.846Z,2.52
2019-05-30T21:29:47.610Z,2.75
2019-05-30T21:34:48.582Z,2.90
2019-05-30T21:37:18.488Z,2.60
2019-05-30T21:39:48.379Z,2.75
2019-05-30T21:42:18.367Z,2.77
2019-05-30T21:44:51.383Z,3.75
2019-05-30T21:47:19.751Z,3.60
2019-05-30T21:49:49.278Z,3.45
2019-05-30T21:52:19.213Z,3.22
2019-05-30T21:54:50.129Z,3.17
2019-05-30T21:57:19.812Z,3.10
2019-05-30T21:59:50.760Z,3.12
2019-05-30T22:02:20.483Z,3.08
2019-05-30T22:04:50.791Z,3.30
2019-05-30T22:07:20.791Z,3.02
2019-05-30T22:09:51.528Z,3.07
2019-05-30T22:14:50.072Z,3.33
2019-05-30T22:17:19.964Z,3.22
2019-05-30T22:19:50.021Z,3.02
2019-05-30T22:22:19.791Z,2.80
2019-05-30T22:24:50.539Z,3.08
2019-05-30T22:27:20.055Z,3.10
2019-05-30T22:29:50.560Z,3.00
2019-05-30T22:32:20.294Z,3.55
2019-05-30T22:34:50.864Z,3.20
2019-05-30T22:37:20.587Z,3.45
2019-05-30T22:39:51.265Z,3.40
2019-05-30T22:42:20.767Z,2.98
2019-05-30T22:44:50.299Z,3.27
2019-05-30T22:47:20.173Z,3.60
2019-05-30T22:49:50.746Z,3.30
2019-05-30T22:52:20.404Z,3.42
2019-05-30T22:54:51.136Z,3.27
2019-05-30T22:59:50.908Z,3.50
2019-05-30T23:02:20.882Z,3.37
2019-05-30T23:04:50.427Z,3.27
2019-05-30T23:07:20.404Z,3.65
2019-05-30T23:09:51.726Z,3.40
2019-05-30T23:12:21.891Z,3.55
2019-05-30T23:14:52.271Z,3.30
2019-05-30T23:17:22.116Z,3.55
2019-05-30T23:19:53.254Z,3.75
2019-05-30T23:22:23.180Z,3.33
2019-05-30T23:24:53.954Z,3.30
2019-05-30T23:29:53.804Z,3.22
2019-05-30T23:32:23.663Z,3.37
2019-05-30T23:34:54.600Z,3.67
2019-05-30T23:37:24.275Z,3.92
2019-05-30T23:39:54.851Z,3.40
2019-05-30T23:42:24.574Z,3.90
2019-05-30T23:44:55.432Z,3.83
2019-05-30T23:47:25.245Z,3.45
2019-05-30T23:49:55.942Z,3.80
2019-05-30T23:52:25.847Z,3.55
2019-05-30T23:54:56.303Z,3.65
2019-05-30T23:57:26.076Z,3.92
2019-05-30T23:59:56.837Z,3.98
